sensor_id;sensor_type;location;lat;lon;timestamp;temperature;humidity
25440;DHT22;13365;52.208;5.488;2023-09-30T00:01:37;18.10;92.50
25440;DHT22;13365;52.208;5.488;2023-09-30T00:04:04;18.00;92.50
25440;DHT22;13365;52.208;5.488;2023-09-30T00:06:30;18.10;92.70
25440;DHT22;13365;52.208;5.488;2023-09-30T00:08:56;18.20;92.70
25440;DHT22;13365;52.208;5.488;2023-09-30T00:11:21;18.20;92.90
25440;DHT22;13365;52.208;5.488;2023-09-30T00:13:47;18.10;92.90
25440;DHT22;13365;52.208;5.488;2023-09-30T00:16:14;18.20;92.90
25440;DHT22;13365;52.208;5.488;2023-09-30T00:18:42;18.20;92.90
25440;DHT22;13365;52.208;5.488;2023-09-30T00:21:08;18.20;92.90
25440;DHT22;13365;52.208;5.488;2023-09-30T00:23:33;18.20;92.90
25440;DHT22;13365;52.208;5.488;2023-09-30T00:25:59;18.20;92.90
25440;DHT22;13365;52.208;5.488;2023-09-30T00:28:26;18.30;92.90
25440;DHT22;13365;52.208;5.488;2023-09-30T00:30:51;18.30;92.80
25440;DHT22;13365;52.208;5.488;2023-09-30T00:33:17;18.30;92.70
25440;DHT22;13365;52.208;5.488;2023-09-30T00:35:42;18.30;92.70
25440;DHT22;13365;52.208;5.488;2023-09-30T00:38:08;18.20;92.60
25440;DHT22;13365;52.208;5.488;2023-09-30T00:40:35;18.20;92.60
25440;DHT22;13365;52.208;5.488;2023-09-30T00:43:00;18.20;92.60
25440;DHT22;13365;52.208;5.488;2023-09-30T00:45:27;18.20;92.70
25440;DHT22;13365;52.208;5.488;2023-09-30T00:47:53;18.20;92.60
25440;DHT22;13365;52.208;5.488;2023-09-30T00:50:19;18.30;92.60
25440;DHT22;13365;52.208;5.488;2023-09-30T00:52:46;18.20;92.50
25440;DHT22;13365;52.208;5.488;2023-09-30T00:55:14;18.30;92.60
25440;DHT22;13365;52.208;5.488;2023-09-30T00:57:41;18.30;92.60
25440;DHT22;13365;52.208;5.488;2023-09-30T01:00:07;18.20;92.50
25440;DHT22;13365;52.208;5.488;2023-09-30T01:02:40;18.20;92.50
25440;DHT22;13365;52.208;5.488;2023-09-30T01:05:07;18.20;92.40
25440;DHT22;13365;52.208;5.488;2023-09-30T01:07:33;18.20;92.40
25440;DHT22;13365;52.208;5.488;2023-09-30T01:09:59;18.20;92.40
25440;DHT22;13365;52.208;5.488;2023-09-30T01:12:25;18.20;92.40
25440;DHT22;13365;52.208;5.488;2023-09-30T01:14:50;18.20;92.40
25440;DHT22;13365;52.208;5.488;2023-09-30T01:17:15;18.20;92.40
25440;DHT22;13365;52.208;5.488;2023-09-30T01:19:42;18.20;92.40
25440;DHT22;13365;52.208;5.488;2023-09-30T01:22:08;18.20;92.40
25440;DHT22;13365;52.208;5.488;2023-09-30T01:24:40;18.10;92.30
25440;DHT22;13365;52.208;5.488;2023-09-30T01:27:06;18.10;92.10
25440;DHT22;13365;52.208;5.488;2023-09-30T01:29:31;18.00;92.00
25440;DHT22;13365;52.208;5.488;2023-09-30T01:31:57;18.00;92.00
25440;DHT22;13365;52.208;5.488;2023-09-30T01:34:23;17.90;91.90
25440;DHT22;13365;52.208;5.488;2023-09-30T01:36:48;17.90;91.80
25440;DHT22;13365;52.208;5.488;2023-09-30T01:39:14;17.90;91.80
25440;DHT22;13365;52.208;5.488;2023-09-30T01:41:40;17.90;91.80
25440;DHT22;13365;52.208;5.488;2023-09-30T01:44:06;17.90;91.70
25440;DHT22;13365;52.208;5.488;2023-09-30T01:46:32;17.80;91.70
25440;DHT22;13365;52.208;5.488;2023-09-30T01:48:58;17.80;91.80
25440;DHT22;13365;52.208;5.488;2023-09-30T01:51:23;17.80;91.80
25440;DHT22;13365;52.208;5.488;2023-09-30T01:53:49;17.70;91.80
25440;DHT22;13365;52.208;5.488;2023-09-30T01:56:15;17.70;91.80
25440;DHT22;13365;52.208;5.488;2023-09-30T01:58:40;17.70;91.80
25440;DHT22;13365;52.208;5.488;2023-09-30T02:01:06;17.70;91.90
25440;DHT22;13365;52.208;5.488;2023-09-30T02:03:32;17.70;92.10
25440;DHT22;13365;52.208;5.488;2023-09-30T02:05:57;17.70;92.20
25440;DHT22;13365;52.208;5.488;2023-09-30T02:08:23;17.70;92.30
25440;DHT22;13365;52.208;5.488;2023-09-30T02:10:48;17.70;92.30
25440;DHT22;13365;52.208;5.488;2023-09-30T02:13:14;17.70;92.10
25440;DHT22;13365;52.208;5.488;2023-09-30T02:15:40;17.60;92.00
25440;DHT22;13365;52.208;5.488;2023-09-30T02:18:09;17.60;92.40
25440;DHT22;13365;52.208;5.488;2023-09-30T02:20:35;17.50;92.00
25440;DHT22;13365;52.208;5.488;2023-09-30T02:23:05;17.50;92.00
25440;DHT22;13365;52.208;5.488;2023-09-30T02:25:31;17.50;91.90
25440;DHT22;13365;52.208;5.488;2023-09-30T02:27:57;17.50;91.90
25440;DHT22;13365;52.208;5.488;2023-09-30T02:30:22;17.50;92.10
25440;DHT22;13365;52.208;5.488;2023-09-30T02:32:49;17.50;92.10
25440;DHT22;13365;52.208;5.488;2023-09-30T02:35:15;17.50;92.30
25440;DHT22;13365;52.208;5.488;2023-09-30T02:37:41;17.50;92.40
25440;DHT22;13365;52.208;5.488;2023-09-30T02:40:07;17.50;92.60
25440;DHT22;13365;52.208;5.488;2023-09-30T02:42:38;17.60;92.90
25440;DHT22;13365;52.208;5.488;2023-09-30T02:45:05;17.50;92.90
25440;DHT22;13365;52.208;5.488;2023-09-30T02:47:31;17.60;93.40
25440;DHT22;13365;52.208;5.488;2023-09-30T02:49:57;17.60;93.10
25440;DHT22;13365;52.208;5.488;2023-09-30T02:52:24;17.70;93.30
25440;DHT22;13365;52.208;5.488;2023-09-30T02:54:49;17.70;93.30
25440;DHT22;13365;52.208;5.488;2023-09-30T02:57:15;17.80;93.30
25440;DHT22;13365;52.208;5.488;2023-09-30T02:59:41;17.80;93.30
25440;DHT22;13365;52.208;5.488;2023-09-30T03:02:07;17.80;93.20
25440;DHT22;13365;52.208;5.488;2023-09-30T03:04:33;17.80;93.20
25440;DHT22;13365;52.208;5.488;2023-09-30T03:06:58;17.90;93.10
25440;DHT22;13365;52.208;5.488;2023-09-30T03:09:24;17.90;93.00
25440;DHT22;13365;52.208;5.488;2023-09-30T03:11:49;17.90;93.00
25440;DHT22;13365;52.208;5.488;2023-09-30T03:14:16;17.90;92.90
25440;DHT22;13365;52.208;5.488;2023-09-30T03:16:42;18.00;92.80
25440;DHT22;13365;52.208;5.488;2023-09-30T03:19:09;18.00;92.80
25440;DHT22;13365;52.208;5.488;2023-09-30T03:21:36;18.10;92.80
25440;DHT22;13365;52.208;5.488;2023-09-30T03:24:03;18.10;92.80
25440;DHT22;13365;52.208;5.488;2023-09-30T03:26:29;18.00;92.60
25440;DHT22;13365;52.208;5.488;2023-09-30T03:28:55;17.90;92.70
25440;DHT22;13365;52.208;5.488;2023-09-30T03:31:21;17.90;92.70
25440;DHT22;13365;52.208;5.488;2023-09-30T03:33:49;17.90;92.60
25440;DHT22;13365;52.208;5.488;2023-09-30T03:36:14;18.00;92.80
25440;DHT22;13365;52.208;5.488;2023-09-30T03:38:40;17.90;92.90
25440;DHT22;13365;52.208;5.488;2023-09-30T03:41:07;18.00;93.00
25440;DHT22;13365;52.208;5.488;2023-09-30T03:43:34;18.00;93.00
25440;DHT22;13365;52.208;5.488;2023-09-30T03:46:06;18.00;93.10
25440;DHT22;13365;52.208;5.488;2023-09-30T03:48:31;18.00;93.00
25440;DHT22;13365;52.208;5.488;2023-09-30T03:50:57;18.10;93.20
25440;DHT22;13365;52.208;5.488;2023-09-30T03:53:23;18.10;93.20
25440;DHT22;13365;52.208;5.488;2023-09-30T03:55:51;18.10;93.30
25440;DHT22;13365;52.208;5.488;2023-09-30T03:58:17;18.10;93.30
25440;DHT22;13365;52.208;5.488;2023-09-30T04:00:44;18.20;93.20
25440;DHT22;13365;52.208;5.488;2023-09-30T04:03:10;18.20;93.20
25440;DHT22;13365;52.208;5.488;2023-09-30T04:05:35;18.20;93.10
25440;DHT22;13365;52.208;5.488;2023-09-30T04:08:02;18.20;93.10
25440;DHT22;13365;52.208;5.488;2023-09-30T04:10:28;18.30;93.00
25440;DHT22;13365;52.208;5.488;2023-09-30T04:12:55;18.20;93.10
25440;DHT22;13365;52.208;5.488;2023-09-30T04:15:21;18.30;93.00
25440;DHT22;13365;52.208;5.488;2023-09-30T04:17:48;18.30;93.00
25440;DHT22;13365;52.208;5.488;2023-09-30T04:20:14;18.30;93.10
25440;DHT22;13365;52.208;5.488;2023-09-30T04:22:46;18.30;93.10
25440;DHT22;13365;52.208;5.488;2023-09-30T04:25:17;18.30;93.20
25440;DHT22;13365;52.208;5.488;2023-09-30T04:27:43;18.40;93.20
25440;DHT22;13365;52.208;5.488;2023-09-30T04:30:10;18.40;93.20
25440;DHT22;13365;52.208;5.488;2023-09-30T04:32:39;18.40;93.20
25440;DHT22;13365;52.208;5.488;2023-09-30T04:35:05;18.40;93.20
25440;DHT22;13365;52.208;5.488;2023-09-30T04:37:31;18.40;93.20
25440;DHT22;13365;52.208;5.488;2023-09-30T04:39:56;18.40;93.30
25440;DHT22;13365;52.208;5.488;2023-09-30T04:42:24;18.40;93.20
25440;DHT22;13365;52.208;5.488;2023-09-30T04:44:51;18.40;93.30
25440;DHT22;13365;52.208;5.488;2023-09-30T04:47:17;18.40;93.20
25440;DHT22;13365;52.208;5.488;2023-09-30T04:49:44;18.40;93.30
25440;DHT22;13365;52.208;5.488;2023-09-30T04:52:09;18.50;93.30
25440;DHT22;13365;52.208;5.488;2023-09-30T04:54:35;18.50;93.30
25440;DHT22;13365;52.208;5.488;2023-09-30T04:57:01;18.50;93.20
25440;DHT22;13365;52.208;5.488;2023-09-30T04:59:28;18.50;93.20
25440;DHT22;13365;52.208;5.488;2023-09-30T05:01:55;18.40;93.30
25440;DHT22;13365;52.208;5.488;2023-09-30T05:04:21;18.30;93.20
25440;DHT22;13365;52.208;5.488;2023-09-30T05:06:49;18.40;93.30
25440;DHT22;13365;52.208;5.488;2023-09-30T05:09:14;18.40;93.30
25440;DHT22;13365;52.208;5.488;2023-09-30T05:11:40;18.40;93.30
25440;DHT22;13365;52.208;5.488;2023-09-30T05:14:06;18.50;93.30
25440;DHT22;13365;52.208;5.488;2023-09-30T05:16:31;18.40;93.20
25440;DHT22;13365;52.208;5.488;2023-09-30T05:18:57;18.40;93.20
25440;DHT22;13365;52.208;5.488;2023-09-30T05:21:22;18.40;93.20
25440;DHT22;13365;52.208;5.488;2023-09-30T05:23:48;18.40;93.10
25440;DHT22;13365;52.208;5.488;2023-09-30T05:26:14;18.40;93.10
25440;DHT22;13365;52.208;5.488;2023-09-30T05:28:40;18.30;93.20
25440;DHT22;13365;52.208;5.488;2023-09-30T05:31:06;18.30;93.20
25440;DHT22;13365;52.208;5.488;2023-09-30T05:33:32;18.40;93.20
25440;DHT22;13365;52.208;5.488;2023-09-30T05:35:58;18.30;93.20
25440;DHT22;13365;52.208;5.488;2023-09-30T05:38:25;18.30;93.20
25440;DHT22;13365;52.208;5.488;2023-09-30T05:40:51;18.30;93.20
25440;DHT22;13365;52.208;5.488;2023-09-30T05:43:17;18.20;93.30
25440;DHT22;13365;52.208;5.488;2023-09-30T05:45:42;18.20;93.70
25440;DHT22;13365;52.208;5.488;2023-09-30T05:48:15;18.20;93.30
25440;DHT22;13365;52.208;5.488;2023-09-30T05:50:41;18.20;93.40
25440;DHT22;13365;52.208;5.488;2023-09-30T05:53:08;18.20;93.40
25440;DHT22;13365;52.208;5.488;2023-09-30T05:55:35;18.20;93.40
25440;DHT22;13365;52.208;5.488;2023-09-30T05:58:02;18.10;93.50
25440;DHT22;13365;52.208;5.488;2023-09-30T06:00:27;18.10;93.60
25440;DHT22;13365;52.208;5.488;2023-09-30T06:02:56;18.10;93.50
25440;DHT22;13365;52.208;5.488;2023-09-30T06:05:22;18.10;93.60
25440;DHT22;13365;52.208;5.488;2023-09-30T06:07:49;18.10;93.70
25440;DHT22;13365;52.208;5.488;2023-09-30T06:10:14;18.20;93.80
25440;DHT22;13365;52.208;5.488;2023-09-30T06:12:51;18.20;93.70
25440;DHT22;13365;52.208;5.488;2023-09-30T06:15:24;18.20;93.70
25440;DHT22;13365;52.208;5.488;2023-09-30T06:17:54;18.20;93.70
25440;DHT22;13365;52.208;5.488;2023-09-30T06:20:20;18.10;93.70
25440;DHT22;13365;52.208;5.488;2023-09-30T06:22:48;18.10;94.00
25440;DHT22;13365;52.208;5.488;2023-09-30T06:25:17;18.10;94.10
25440;DHT22;13365;52.208;5.488;2023-09-30T06:27:47;18.20;94.20
25440;DHT22;13365;52.208;5.488;2023-09-30T06:30:15;18.20;94.20
25440;DHT22;13365;52.208;5.488;2023-09-30T06:32:42;18.20;94.20
25440;DHT22;13365;52.208;5.488;2023-09-30T06:35:08;18.30;94.30
25440;DHT22;13365;52.208;5.488;2023-09-30T06:37:36;18.30;94.30
25440;DHT22;13365;52.208;5.488;2023-09-30T06:40:04;18.40;94.40
25440;DHT22;13365;52.208;5.488;2023-09-30T06:42:30;18.40;94.40
25440;DHT22;13365;52.208;5.488;2023-09-30T06:44:56;18.40;94.40
25440;DHT22;13365;52.208;5.488;2023-09-30T06:47:22;18.40;94.50
25440;DHT22;13365;52.208;5.488;2023-09-30T06:49:49;18.50;94.50
25440;DHT22;13365;52.208;5.488;2023-09-30T06:52:15;18.60;94.40
25440;DHT22;13365;52.208;5.488;2023-09-30T06:54:40;18.70;94.50
25440;DHT22;13365;52.208;5.488;2023-09-30T06:57:06;18.70;94.50
25440;DHT22;13365;52.208;5.488;2023-09-30T06:59:34;18.80;94.60
25440;DHT22;13365;52.208;5.488;2023-09-30T07:02:00;18.80;94.60
25440;DHT22;13365;52.208;5.488;2023-09-30T07:04:25;18.90;94.60
25440;DHT22;13365;52.208;5.488;2023-09-30T07:06:53;18.90;94.60
25440;DHT22;13365;52.208;5.488;2023-09-30T07:09:18;19.00;94.90
25440;DHT22;13365;52.208;5.488;2023-09-30T07:11:45;19.10;94.80
25440;DHT22;13365;52.208;5.488;2023-09-30T07:14:10;19.10;94.90
25440;DHT22;13365;52.208;5.488;2023-09-30T07:16:36;19.10;94.70
25440;DHT22;13365;52.208;5.488;2023-09-30T07:19:01;19.20;94.90
25440;DHT22;13365;52.208;5.488;2023-09-30T07:21:28;19.30;95.00
25440;DHT22;13365;52.208;5.488;2023-09-30T07:23:53;19.30;95.00
25440;DHT22;13365;52.208;5.488;2023-09-30T07:26:24;19.40;94.90
25440;DHT22;13365;52.208;5.488;2023-09-30T07:28:49;19.40;95.10
25440;DHT22;13365;52.208;5.488;2023-09-30T07:31:15;19.50;95.10
25440;DHT22;13365;52.208;5.488;2023-09-30T07:33:40;19.50;95.10
25440;DHT22;13365;52.208;5.488;2023-09-30T07:36:06;19.70;95.20
25440;DHT22;13365;52.208;5.488;2023-09-30T07:38:32;19.80;95.30
25440;DHT22;13365;52.208;5.488;2023-09-30T07:40:57;19.90;95.30
25440;DHT22;13365;52.208;5.488;2023-09-30T07:43:23;20.10;95.20
25440;DHT22;13365;52.208;5.488;2023-09-30T07:45:48;20.20;95.30
25440;DHT22;13365;52.208;5.488;2023-09-30T07:48:14;20.30;95.50
25440;DHT22;13365;52.208;5.488;2023-09-30T07:50:39;20.60;95.20
25440;DHT22;13365;52.208;5.488;2023-09-30T07:53:06;20.60;95.10
25440;DHT22;13365;52.208;5.488;2023-09-30T07:55:31;20.70;95.20
25440;DHT22;13365;52.208;5.488;2023-09-30T07:57:57;20.80;95.20
25440;DHT22;13365;52.208;5.488;2023-09-30T08:00:25;21.10;94.90
25440;DHT22;13365;52.208;5.488;2023-09-30T08:02:50;21.10;94.50
25440;DHT22;13365;52.208;5.488;2023-09-30T08:05:16;21.30;94.40
25440;DHT22;13365;52.208;5.488;2023-09-30T08:07:42;21.40;94.60
25440;DHT22;13365;52.208;5.488;2023-09-30T08:10:08;21.60;94.10
25440;DHT22;13365;52.208;5.488;2023-09-30T08:12:39;21.70;93.70
25440;DHT22;13365;52.208;5.488;2023-09-30T08:15:06;21.70;93.70
25440;DHT22;13365;52.208;5.488;2023-09-30T08:17:32;21.80;93.60
25440;DHT22;13365;52.208;5.488;2023-09-30T08:19:59;21.90;93.60
25440;DHT22;13365;52.208;5.488;2023-09-30T08:22:24;21.90;93.80
25440;DHT22;13365;52.208;5.488;2023-09-30T08:24:53;22.10;93.50
25440;DHT22;13365;52.208;5.488;2023-09-30T08:27:19;22.40;93.00
25440;DHT22;13365;52.208;5.488;2023-09-30T08:29:45;22.30;92.80
25440;DHT22;13365;52.208;5.488;2023-09-30T08:32:11;22.40;93.20
25440;DHT22;13365;52.208;5.488;2023-09-30T08:34:36;22.40;93.30
25440;DHT22;13365;52.208;5.488;2023-09-30T08:37:02;22.70;93.00
25440;DHT22;13365;52.208;5.488;2023-09-30T08:39:28;22.90;91.90
25440;DHT22;13365;52.208;5.488;2023-09-30T08:41:55;23.10;92.00
25440;DHT22;13365;52.208;5.488;2023-09-30T08:44:21;23.20;91.50
25440;DHT22;13365;52.208;5.488;2023-09-30T08:46:47;23.40;91.90
25440;DHT22;13365;52.208;5.488;2023-09-30T08:49:14;23.40;91.70
25440;DHT22;13365;52.208;5.488;2023-09-30T08:51:40;23.60;91.70
25440;DHT22;13365;52.208;5.488;2023-09-30T08:54:06;23.60;91.00
25440;DHT22;13365;52.208;5.488;2023-09-30T08:56:32;23.80;91.20
25440;DHT22;13365;52.208;5.488;2023-09-30T08:59:02;24.00;90.70
25440;DHT22;13365;52.208;5.488;2023-09-30T09:01:29;24.00;90.70
25440;DHT22;13365;52.208;5.488;2023-09-30T09:03:57;24.20;91.30
25440;DHT22;13365;52.208;5.488;2023-09-30T09:06:25;24.40;91.50
25440;DHT22;13365;52.208;5.488;2023-09-30T09:08:51;24.60;90.80
25440;DHT22;13365;52.208;5.488;2023-09-30T09:11:17;24.90;90.10
25440;DHT22;13365;52.208;5.488;2023-09-30T09:13:53;25.10;88.30
25440;DHT22;13365;52.208;5.488;2023-09-30T09:16:22;25.30;90.00
25440;DHT22;13365;52.208;5.488;2023-09-30T09:18:48;25.50;88.00
25440;DHT22;13365;52.208;5.488;2023-09-30T09:21:20;25.60;88.20
25440;DHT22;13365;52.208;5.488;2023-09-30T09:23:48;25.80;87.80
25440;DHT22;13365;52.208;5.488;2023-09-30T09:28:50;26.20;84.70
25440;DHT22;13365;52.208;5.488;2023-09-30T09:31:35;26.20;83.20
25440;DHT22;13365;52.208;5.488;2023-09-30T09:34:13;26.30;83.50
25440;DHT22;13365;52.208;5.488;2023-09-30T09:36:44;26.30;83.90
25440;DHT22;13365;52.208;5.488;2023-09-30T09:39:10;26.20;83.00
25440;DHT22;13365;52.208;5.488;2023-09-30T09:41:51;26.30;82.00
25440;DHT22;13365;52.208;5.488;2023-09-30T09:44:20;26.20;82.10
25440;DHT22;13365;52.208;5.488;2023-09-30T09:46:47;26.20;83.10
25440;DHT22;13365;52.208;5.488;2023-09-30T09:49:16;26.20;83.90
25440;DHT22;13365;52.208;5.488;2023-09-30T09:51:44;26.10;83.50
25440;DHT22;13365;52.208;5.488;2023-09-30T09:54:11;26.30;81.90
25440;DHT22;13365;52.208;5.488;2023-09-30T09:56:38;26.40;82.20
25440;DHT22;13365;52.208;5.488;2023-09-30T09:59:04;26.40;84.30
25440;DHT22;13365;52.208;5.488;2023-09-30T10:01:30;26.50;83.10
25440;DHT22;13365;52.208;5.488;2023-09-30T10:03:56;26.50;82.10
25440;DHT22;13365;52.208;5.488;2023-09-30T10:06:22;26.50;82.50
25440;DHT22;13365;52.208;5.488;2023-09-30T10:08:49;26.50;83.40
25440;DHT22;13365;52.208;5.488;2023-09-30T10:11:18;26.60;82.20
25440;DHT22;13365;52.208;5.488;2023-09-30T10:13:51;26.60;81.10
25440;DHT22;13365;52.208;5.488;2023-09-30T10:19:11;27.00;81.60
25440;DHT22;13365;52.208;5.488;2023-09-30T10:21:37;27.20;80.90
25440;DHT22;13365;52.208;5.488;2023-09-30T10:29:48;27.20;76.20
25440;DHT22;13365;52.208;5.488;2023-09-30T10:32:13;27.10;77.30
25440;DHT22;13365;52.208;5.488;2023-09-30T10:34:47;27.00;76.80
25440;DHT22;13365;52.208;5.488;2023-09-30T10:37:23;26.80;75.60
25440;DHT22;13365;52.208;5.488;2023-09-30T10:39:57;26.80;77.70
25440;DHT22;13365;52.208;5.488;2023-09-30T10:42:49;26.50;77.00
25440;DHT22;13365;52.208;5.488;2023-09-30T10:48:40;26.40;78.10
25440;DHT22;13365;52.208;5.488;2023-09-30T10:51:17;26.50;74.80
25440;DHT22;13365;52.208;5.488;2023-09-30T10:53:54;26.40;76.40
25440;DHT22;13365;52.208;5.488;2023-09-30T10:56:23;26.30;75.20
25440;DHT22;13365;52.208;5.488;2023-09-30T10:58:50;26.10;75.50
25440;DHT22;13365;52.208;5.488;2023-09-30T11:01:18;26.00;77.50
25440;DHT22;13365;52.208;5.488;2023-09-30T11:03:45;26.20;77.20
25440;DHT22;13365;52.208;5.488;2023-09-30T11:06:15;26.10;77.60
25440;DHT22;13365;52.208;5.488;2023-09-30T11:08:56;26.40;77.20
25440;DHT22;13365;52.208;5.488;2023-09-30T11:11:41;26.60;76.80
25440;DHT22;13365;52.208;5.488;2023-09-30T11:14:31;26.20;74.60
25440;DHT22;13365;52.208;5.488;2023-09-30T11:17:05;26.30;75.10
25440;DHT22;13365;52.208;5.488;2023-09-30T11:19:46;26.20;77.70
25440;DHT22;13365;52.208;5.488;2023-09-30T11:22:15;26.20;76.60
25440;DHT22;13365;52.208;5.488;2023-09-30T11:24:41;26.00;75.30
25440;DHT22;13365;52.208;5.488;2023-09-30T11:27:07;25.60;75.10
25440;DHT22;13365;52.208;5.488;2023-09-30T11:29:32;25.90;75.70
25440;DHT22;13365;52.208;5.488;2023-09-30T11:31:58;26.00;77.50
25440;DHT22;13365;52.208;5.488;2023-09-30T11:34:34;26.20;75.30
25440;DHT22;13365;52.208;5.488;2023-09-30T11:37:01;26.10;75.60
25440;DHT22;13365;52.208;5.488;2023-09-30T11:39:28;26.30;76.40
25440;DHT22;13365;52.208;5.488;2023-09-30T11:41:54;26.70;77.20
25440;DHT22;13365;52.208;5.488;2023-09-30T11:44:21;26.70;74.90
25440;DHT22;13365;52.208;5.488;2023-09-30T11:46:55;26.70;73.40
25440;DHT22;13365;52.208;5.488;2023-09-30T11:49:33;26.70;74.10
25440;DHT22;13365;52.208;5.488;2023-09-30T11:52:03;26.70;74.10
25440;DHT22;13365;52.208;5.488;2023-09-30T11:54:33;26.70;74.50
25440;DHT22;13365;52.208;5.488;2023-09-30T11:57:00;26.80;74.10
25440;DHT22;13365;52.208;5.488;2023-09-30T11:59:27;26.90;72.10
25440;DHT22;13365;52.208;5.488;2023-09-30T12:01:53;27.00;73.70
25440;DHT22;13365;52.208;5.488;2023-09-30T12:04:18;27.20;73.60
25440;DHT22;13365;52.208;5.488;2023-09-30T12:06:45;27.10;72.50
25440;DHT22;13365;52.208;5.488;2023-09-30T12:09:12;27.20;73.00
25440;DHT22;13365;52.208;5.488;2023-09-30T12:11:43;27.20;71.60
25440;DHT22;13365;52.208;5.488;2023-09-30T12:14:12;27.10;70.50
25440;DHT22;13365;52.208;5.488;2023-09-30T12:16:38;26.70;72.00
25440;DHT22;13365;52.208;5.488;2023-09-30T12:19:04;26.70;71.20
25440;DHT22;13365;52.208;5.488;2023-09-30T12:21:31;26.80;72.50
25440;DHT22;13365;52.208;5.488;2023-09-30T12:23:57;26.50;71.50
25440;DHT22;13365;52.208;5.488;2023-09-30T12:26:23;26.30;71.50
25440;DHT22;13365;52.208;5.488;2023-09-30T12:28:49;26.10;73.40
25440;DHT22;13365;52.208;5.488;2023-09-30T12:31:14;26.20;74.10
25440;DHT22;13365;52.208;5.488;2023-09-30T12:33:41;26.30;74.70
25440;DHT22;13365;52.208;5.488;2023-09-30T12:36:06;26.30;75.30
25440;DHT22;13365;52.208;5.488;2023-09-30T12:38:33;26.30;76.20
25440;DHT22;13365;52.208;5.488;2023-09-30T12:40:58;26.20;73.00
25440;DHT22;13365;52.208;5.488;2023-09-30T12:43:24;26.00;74.80
25440;DHT22;13365;52.208;5.488;2023-09-30T12:45:50;26.10;76.80
25440;DHT22;13365;52.208;5.488;2023-09-30T12:48:16;25.90;76.50
25440;DHT22;13365;52.208;5.488;2023-09-30T12:50:43;25.90;74.60
25440;DHT22;13365;52.208;5.488;2023-09-30T12:53:09;25.80;73.90
25440;DHT22;13365;52.208;5.488;2023-09-30T12:55:35;26.00;76.20
25440;DHT22;13365;52.208;5.488;2023-09-30T12:58:00;26.20;76.40
25440;DHT22;13365;52.208;5.488;2023-09-30T13:00:26;26.20;76.40
25440;DHT22;13365;52.208;5.488;2023-09-30T13:02:52;26.30;77.30
25440;DHT22;13365;52.208;5.488;2023-09-30T13:05:18;26.20;76.20
25440;DHT22;13365;52.208;5.488;2023-09-30T13:07:43;26.20;76.10
25440;DHT22;13365;52.208;5.488;2023-09-30T13:10:09;26.10;76.70
25440;DHT22;13365;52.208;5.488;2023-09-30T13:12:35;26.20;76.80
25440;DHT22;13365;52.208;5.488;2023-09-30T13:15:01;26.00;77.30
25440;DHT22;13365;52.208;5.488;2023-09-30T13:17:27;25.90;76.50
25440;DHT22;13365;52.208;5.488;2023-09-30T13:19:54;25.90;76.40
25440;DHT22;13365;52.208;5.488;2023-09-30T13:22:20;25.90;76.90
25440;DHT22;13365;52.208;5.488;2023-09-30T13:24:46;25.80;76.90
25440;DHT22;13365;52.208;5.488;2023-09-30T13:27:13;25.80;76.30
25440;DHT22;13365;52.208;5.488;2023-09-30T13:29:41;25.80;76.10
25440;DHT22;13365;52.208;5.488;2023-09-30T13:32:08;25.70;75.10
25440;DHT22;13365;52.208;5.488;2023-09-30T13:34:34;25.70;75.70
25440;DHT22;13365;52.208;5.488;2023-09-30T13:36:59;25.70;76.20
25440;DHT22;13365;52.208;5.488;2023-09-30T13:39:25;26.00;75.30
25440;DHT22;13365;52.208;5.488;2023-09-30T13:41:50;25.90;74.30
25440;DHT22;13365;52.208;5.488;2023-09-30T13:44:17;26.00;74.60
25440;DHT22;13365;52.208;5.488;2023-09-30T13:46:43;25.60;72.40
25440;DHT22;13365;52.208;5.488;2023-09-30T13:49:09;25.60;73.20
25440;DHT22;13365;52.208;5.488;2023-09-30T13:51:34;25.60;72.90
25440;DHT22;13365;52.208;5.488;2023-09-30T13:54:00;25.60;73.10
25440;DHT22;13365;52.208;5.488;2023-09-30T13:56:26;25.30;72.10
25440;DHT22;13365;52.208;5.488;2023-09-30T13:58:52;24.80;73.20
25440;DHT22;13365;52.208;5.488;2023-09-30T14:01:18;24.70;74.40
25440;DHT22;13365;52.208;5.488;2023-09-30T14:03:45;24.70;75.00
25440;DHT22;13365;52.208;5.488;2023-09-30T14:06:15;25.00;74.60
25440;DHT22;13365;52.208;5.488;2023-09-30T14:08:41;25.30;74.20
25440;DHT22;13365;52.208;5.488;2023-09-30T14:11:10;25.40;74.80
25440;DHT22;13365;52.208;5.488;2023-09-30T14:13:37;25.30;77.00
25440;DHT22;13365;52.208;5.488;2023-09-30T14:16:05;25.20;76.40
25440;DHT22;13365;52.208;5.488;2023-09-30T14:18:30;25.30;76.20
25440;DHT22;13365;52.208;5.488;2023-09-30T14:20:56;25.40;76.70
25440;DHT22;13365;52.208;5.488;2023-09-30T14:23:22;25.50;76.80
25440;DHT22;13365;52.208;5.488;2023-09-30T14:25:49;25.40;75.70
25440;DHT22;13365;52.208;5.488;2023-09-30T14:28:14;25.60;76.30
25440;DHT22;13365;52.208;5.488;2023-09-30T14:30:40;25.70;75.60
25440;DHT22;13365;52.208;5.488;2023-09-30T14:33:05;25.60;75.70
25440;DHT22;13365;52.208;5.488;2023-09-30T14:35:33;25.80;76.10
25440;DHT22;13365;52.208;5.488;2023-09-30T14:37:59;25.80;76.30
25440;DHT22;13365;52.208;5.488;2023-09-30T14:40:27;25.90;75.70
25440;DHT22;13365;52.208;5.488;2023-09-30T14:42:52;26.00;75.70
25440;DHT22;13365;52.208;5.488;2023-09-30T14:45:18;25.70;74.60
25440;DHT22;13365;52.208;5.488;2023-09-30T14:47:43;25.70;75.10
25440;DHT22;13365;52.208;5.488;2023-09-30T14:50:09;25.60;74.00
25440;DHT22;13365;52.208;5.488;2023-09-30T14:52:34;25.60;74.60
25440;DHT22;13365;52.208;5.488;2023-09-30T14:55:00;25.50;74.20
25440;DHT22;13365;52.208;5.488;2023-09-30T14:57:26;25.30;74.00
25440;DHT22;13365;52.208;5.488;2023-09-30T14:59:51;25.20;74.90
25440;DHT22;13365;52.208;5.488;2023-09-30T15:02:17;25.10;75.50
25440;DHT22;13365;52.208;5.488;2023-09-30T15:04:42;25.10;76.50
25440;DHT22;13365;52.208;5.488;2023-09-30T15:07:08;25.20;77.00
25440;DHT22;13365;52.208;5.488;2023-09-30T15:09:34;25.20;77.60
25440;DHT22;13365;52.208;5.488;2023-09-30T15:12:00;25.40;78.30
25440;DHT22;13365;52.208;5.488;2023-09-30T15:14:25;25.30;77.40
25440;DHT22;13365;52.208;5.488;2023-09-30T15:16:51;25.50;78.40
25440;DHT22;13365;52.208;5.488;2023-09-30T15:19:16;25.60;76.90
25440;DHT22;13365;52.208;5.488;2023-09-30T15:21:43;25.70;77.20
25440;DHT22;13365;52.208;5.488;2023-09-30T15:24:08;25.60;75.90
25440;DHT22;13365;52.208;5.488;2023-09-30T15:26:34;25.60;76.90
25440;DHT22;13365;52.208;5.488;2023-09-30T15:29:00;25.60;77.50
25440;DHT22;13365;52.208;5.488;2023-09-30T15:31:30;25.70;78.80
25440;DHT22;13365;52.208;5.488;2023-09-30T15:33:56;25.70;78.60
25440;DHT22;13365;52.208;5.488;2023-09-30T15:36:22;25.70;77.60
25440;DHT22;13365;52.208;5.488;2023-09-30T15:38:48;26.00;76.10
25440;DHT22;13365;52.208;5.488;2023-09-30T15:41:14;26.10;75.50
25440;DHT22;13365;52.208;5.488;2023-09-30T15:43:40;26.30;73.70